Pago Pago, AS (96799)

10:28 AM SST on July 26, 2016 (GMT -1100)
Malaeimi | | Change Station

Elev 217 ft 14.32 °S, 170.74 °W | Updated 28 minutes ago

Scattered Clouds
Scattered Clouds
79.6 °F
Feels Like 84 °F
N
4.0
Wind Variable Wind from NNW
Gusts 4.0 mph

Today
High -- | Low -- °F
--% Chance of Precip.
Yesterday
High -- | Low -- °F
Precip. -- in
Pressure 29.97 in
Visibility 10.0 miles
Clouds Scattered Clouds 4800 ft
Heat Index 84 °F
Dew Point 74 °F
Humidity 83%
Rainfall 0.00 in
Snow Depth Not available.
6:46 AM 6:12 PM
Waning Gibbous, 51% visible
METAR PHKO 262053Z 21009KT 10SM SCT048 29/23 A2997 RMK AO2 SLP149 T02890228 50001
Pressure 29.97 in
Visibility 10.0 miles
Clouds Scattered Clouds 4800 ft
Heat Index 84 °F
Dew Point 74 °F
Humidity 83%
Rainfall 0.00 in
Snow Depth Not available.
6:46 AM 6:12 PM
Waning Gibbous, 51% visible
METAR PHKO 262053Z 21009KT 10SM SCT048 29/23 A2997 RMK AO2 SLP149 T02890228 50001

10-Day Weather Forecast

No radar image for this location.
×

Almanac

Astronomy

Jul. 26, 2016 Rise Set
Actual Time
Civil Twilight
Nautical Twilight
Astronomical Twilight
Moon
Length of Visible Light
Length of Day
Tomorrow will be .
, % of the Moon is Illuminated

Today's Extremes

State Highs State Lows

Community

WunderPhotos

Upload Photos

1,927,702 photos uploaded!

WunderBlog® & News

Nearby

Air Quality

  Air Quality AQ Index Pollutant
Not available.

Snow Depth

Station Depth Elevation

Earthquake Activity

City Distance Mag. Time & Date
Minimum magnitude displayed is 2.5.

Coastal Water Temperatures

Place Temperature

Stations

Nearby Weather Stations

Station Location Temp. Windchill Dew Point Humidity Wind Precip. Elev Updated Type
                   

Watches & Warnings

There are currently no watches in effect.